AREA preflight bulletin
Updated "live" 24 Feb 2020, 22:48

back to the map




METAR og TAF


NARSARSUAQ
  AKTUEL BGBW 242220Z AUTO VRB04KT 9999NDV NCD M11/M23 Q1009=
  TAF 9 timer BGBW 241705Z 2417/2420 21008KT 9999 FEW030 SCT080 BKN140 TEMPO 2417/2420 BKN030=

QAQORTOQ
  AKTUEL BGJH 242220Z AUTO 00000KT //// ///////// M10/M16 Q1010=

PAAMIUT
  AKTUEL BGPT 242220Z AUTO 03005KT //// BKN013/// BKN052/// M09/M11 Q1013=

NARSAQ
  AKTUEL BGNS 242220Z AUTO 03015G25KT 360V060 //// ///////// M09/M19 Q1009=

NANORTALIK
  AKTUEL BGNN 242220Z AUTO /////KT //// ///////// ///// Q1009=

NUUK
  SPECI(AL) BGGH 242230Z 27007KT 240V300 9999 VCSH BKN027 M12/M16 Q1011 RMK LAST=
  AKTUEL BGGH 242150Z 27009KT 8000 -SHSN BKN020 BKN030 M12/M16 Q1011=
  TAF 9 timer BGGH 241655Z 2418/2424 31013KT 9999 SCT020 BKN040 TEMPO 2418/2424 0800 SHSN DRSN BKN009=

KANGERLUSSUAQ
  AKTUEL BGSF 242250Z AUTO 06006KT 9999NDV OVC034/// M21/M25 Q1012=
  TAF 24 timer BGSF 241649Z 2418/2424 06008KT 9999 BKN030 TEMPO 2418/2424 SCT030=


SIGMETS:

Ingen SIGMET fundet:

SNOWTAM:

ICAO
BGBW (NARSARSUAQ)

valid from:
2002241255

Notam_id:
0151

SNOWTAM 0151 A) BGBW B) 02241255 C) 06 F) 9/9/9 G) 2/2/2 H) 5/5/5 N) 9/GOOD R) 49/GOOD T) RWY CONTAMINATION 25 PCT 2MM FROZEN RUTS MEASURED FRICTION COEFFICIENTS 85/85/85 TAP - TWYS COVERED 10 PERCENT 2MM FROZEN RUTS -APRON COVERED 50 PERCENT 50MM DRY SNOW AND 25 PERCENT FROZEN RUTS - TWYS AND APRON BRAKING ACTION GOOD - SWEEPING IN PROGRESS


ICAO
BGGH (NUUK)

valid from:
2002242108

Notam_id:
0603

SNOWTAM 0603 A) BGGH B) 02242108 C) 05 F) 8/8/8 G) 1/1/1 H) 5/5/5 N) 48/GOOD R) 487/POOR T) RWY CONTAMINATION 10 PERCENT 1MM COMPACTED SNOW- MEASURED FRICTION COEFFICIENTS 74/77/70 TAP


ICAO
BGSF (KANGERLUSSUAQ)

valid from:
2002241910

Notam_id:
0402

SNOWTAM 0402 A) BGSF B) 02241910 C) 09 F) 48/48/48 G) 7/7/7 H) 5/5/5 N) A/38/GOOD B C/438/GOOD D/438/MEDIUM TO POOR R) N/38/POOR E/438/POOR W/4387/MEDIUM TO POOR HELIAPRON/438/POOR T) MEASURED FRICTION COEFFICIENTS 64/80/63 TAP, RWY CONTAMINATION 10 PERCENT OF 2MM DRY SNOW AND 25 PERCENT 5MM COMPACTED OR ROLLED SNOW



NOTAM/SNOWTAM for operationel use has to be confirmed with the
nearest AIS Briefing Office prior to a flight.

ICAO
BGBW (NARSARSUAQ)

FIR
BGGL

Notam_id:
BGA0608/19

valid from:
1912231316

E) SEA RESCUE BOAT TAKEN ASHORE. CAN BE LAUNCHED WITHIN 45 MINS IN CASE OF EMERGENCY - ICE CONDITIONS IN HARBOUR AND WEATHER PERMITTING.

valid to:
2005011400EST




ICAO
BGBW (NARSARSUAQ)

FIR
BGGL

Notam_id:
BGA0077/20

valid from:
2002211847

E) EVERY OTHER THR LIGHT RWY 06/24 U/S.

valid to:
2002291900EST


Replacing:
BGA0063/20

ICAO
BGBW (NARSARSUAQ)

FIR
BGGL

Notam_id:
BGA0076/20

valid from:
2002211845

E) EVERY OTHER RWY EDGE LIGHT RWY 06/24 U/S.

valid to:
2002291900EST


Replacing:
BGA0065/20

ICAO
BGBW (NARSARSUAQ)

FIR
BGGL

Notam_id:
BGA0609/19

valid from:
2001010000

E) AD CATEGORY FOR FIREFIGHTING: CAT 5 PPR 3 HR FOR AC WITH MTOM OF 10 TONS OR MORE OR WHICH CARRY 20 PASSENGER SEATS OR MORE, EXCEPT FOR SCHEDULED COMMERCIAL FLIGHTS. CAT 6 OR 7 PN 4 HOURS. OUTSIDE HOURS OF SERVICE PPR MNM 8 HR.

valid to:
PERM




ICAO
BGBW (NARSARSUAQ)

FIR
BGGL

Notam_id:
BGA0078/20

valid from:
2002211849

E) EVERY OTHER RWY END IDENTIFIER LIGHT RWY 06/24 U/S.

valid to:
2002291900EST




ICAO
BGJH (QAQORTOQ)

FIR
BGGL

Notam_id:
BGC0132/19

valid from:
1912231307

E) TLOF EDGE CHANGED (GREEN CIRCLE).

valid to:
PERM




ICAO
BGJH (QAQORTOQ)

FIR
BGGL

Notam_id:
BGC0133/19

valid from:
1912231334

E) FATO AREA LGT CHARACTERISTICS, LOCATION: 15 GREEN EDGE LIGHTS.

valid to:
PERM


Replacing:
BGC0131/19

ICAO
BGJH (QAQORTOQ)

FIR
BGGL

Notam_id:
BGC0038/20

valid from:
2002241129

E) WIND DATA UNRELIABLE.

valid to:
2003171600EST




ICAO
BGPT (PAAMIUT)

FIR
BGGL

Notam_id:
BGB0209/20

valid from:
2002211854

E) FUEL JET-A1 LIMITED QUANTITY AVAILABLE. FUEL RESERVED FOR SAR AND MEDEVAC ONLY. PLEASE CONTACT AD BEFORE FLIGHT FOR ACTUAL AVAILABILITY.

valid to:
2002251800




ICAO
BGNS (NARSAQ)

FIR
BGGL

Notam_id:
BGC0018/20

valid from:
2001231331

E) FATO AREA LGT CHARATERISTICS, LOCATION: GREEN, EDGE

valid to:
PERM




ICAO
BGNN (NANORTALIK)

FIR
BGGL

Notam_id:
BGC0019/20

valid from:
2001231336

E) FATO AREA LGT CHARATERISTICS, LOCATION: GREEN, EDGE.

valid to:
PERM




ICAO
BGGL (SONDRESTROM FIR)

FIR
BGGL

Notam_id:
BGA0074/20

valid from:
2002191400

E) NUUK INFORMATION FREQ 121.300 MHZ PSN 653054N0370944W KULUSUK. VHF WILL BE SUBJECT TO INCREASED SOLAR INTERFERENCE AND WILL BE UNRELIABLE APPROX. BETWEEN 1400Z AND 1600Z EVERY DAY.

valid to:
2003051600




ICAO
BGGL (SONDRESTROM FIR)

FIR
BGGL

Notam_id:
BGA0483/19

valid from:
1909271038

E) NUUK INFORMATION FREQ 5526 KHZ PSN 6334N03707W KULUSUK U/S.

valid to:
2004011800




ICAO
BGGL (SONDRESTROM FIR)

FIR
BGGL

Notam_id:
BGA0025/20

valid from:
2002010556

E) CHECKLIST YEAR=2018 0199 YEAR=2019 0483 0601 0608 0609 YEAR=2020 0010 0023 LATEST PUBLICATIONS AIP AIRAC AMDT IFR 008/2019 EFFECTIVE DATE 05 DEC 19 AIP AMDT IFR 003/2018 EFFECTIVE DATE 15 MAR 18 AIP SUP IFR 002/2019 EFFECTIVE DATE 08 NOV 19 AIC IFR A001/2019 EFFECTIVE DATE 17 JAN 19 AIC CHECKLIST AIP IFR A001/2016 A002/2016 A001/2017 A002/2017 A002/2018 A003/2018 A004/2018 A001/2019 AIP VFR NIL AIP MIL NIL SUP CHECKLIST AIP IFR NIL AIP VFR NIL AIP MIL NIL

valid to:
2003010556EST


Replacing:
BGA0001/20

ICAO
BGGL (SONDRESTROM FIR)

FIR
BGGL

Notam_id:
BGB0146/20

valid from:
2002010556

E) CHECKLIST YEAR=2019 0606 0677 0734 0765 0787 0808 0819 0828 0829 YEAR=2020 0010 0084 0090 0114 0116 0122 0131 0137 0141 0144 0145 LATEST PUBLICATIONS AIP AIRAC AMDT IFR 008/2019 EFFECTIVE DATE 05 DEC 19 AIP AMDT IFR 003/2018 EFFECTIVE DATE 15 MAR 18 AIP SUP IFR 002/2019 EFFECTIVE DATE 08 NOV 19 AIC IFR A001/2019 EFFECTIVE DATE 17 JAN 19 AIC CHECKLIST AIP IFR A001/2016 A002/2016 A001/2017 A002/2017 A002/2018 A003/2018 A004/2018 A001/2019 AIP VFR NIL AIP MIL NIL SUP CHECKLIST AIP IFR NIL AIP VFR NIL AIP MIL NIL

valid to:
2003010556EST


Replacing:
BGB0001/20

ICAO
BGGL (SONDRESTROM FIR)

FIR
BGGL

Notam_id:
BGC0032/20

valid from:
2002010557

E) CHECKLIST YEAR=2019 0132 0133 YEAR=2020 0018 0019 0021 0024 0031 LATEST PUBLICATIONS AIP AIRAC AMDT IFR 008/2019 EFFECTIVE DATE 05 DEC 19 AIP AMDT IFR 003/2018 EFFECTIVE DATE 15 MAR 18 AIP SUP IFR 002/2019 EFFECTIVE DATE 08 NOV 19 AIC IFR A001/2019 EFFECTIVE DATE 17 JAN 19 AIC CHECKLIST AIP IFR A001/2016 A002/2016 A001/2017 A002/2017 A002/2018 A003/2018 A004/2018 A001/2019 AIP VFR NIL AIP MIL NIL SUP CHECKLIST AIP IFR NIL AIP VFR NIL AIP MIL NIL

valid to:
2003010557EST


Replacing:
BGC0001/20

ICAO
BGGL (SONDRESTROM FIR)

FIR
BGGL

Notam_id:
BGA0010/20

valid from:
2002270000

E) AIP GREENLAND AIRAC AMDT EFFECTIVE DATE 27 FEB 2020: NIL

valid to:
2003112359




ICAO
BGGL (SONDRESTROM FIR)

FIR
BGGL

Notam_id:
BGA0199/18

valid from:
1805310935

E) GREENLAND AND ADJACENT WATERS ARE CONSIDERED HOSTILE AREAS BY THE CIVIL AVIATION AUTHORITY (TBST). THREE MAJOR REASONS CONTRIBUTE TO DEFINING THE AREA AS HOSTILE: A SAFE FORCED LANDING CANNOT BE ACCOMPLISHED BECAUSE THE SURFACE IS INADEQUATE. THE HELICOPTER OCCUPANTS CANNOT BE ADEQUATELY PROTECTED FROM THE ELEMENTS. SEARCH AND RESCUE RESPONSE/CAPABILITY ARE NOT PROVIDED CONSISTENT WITH ANTICIPATED EXPOSURE.

valid to:
PERM




ICAO
BGGL (SONDRESTROM FIR)

FIR
BGGL

Notam_id:
BGA0027/20

valid from:
2003260000

E) TRIGGER NOTAM - PERM AIP AIRAC AMDT 01/20 WEF 26 MAR 2020. REF GEN 2.4: BGIO, BGMO, BGQK AND BGSO WITHDRAWN. REF ENR 4.4: NEW LAYOUT AND DESIGNATOR UPDATED. DESIGNATOR ADMIP, ANVEP, BAMUG, DOPOK, ELTUX, GENSA, GONEN, GUBDA, INGAS, KULOX, KUVIG, LOBKA, LUTEV, MADIX, NANOK, NIPOT, NODBA, NOVGO, OSVOV, PIXIV, ROPKI, UVIRI AND VAPAN DELETED AS THEY DID NOT HAVE ANY RELATION TO THE ENROUTE STRUCTURE AND ARE NOW ONLY SHOWN ON RESPECTIVE IAC IN AD 2.

valid to:
2004082359




ICAO
BGGH (NUUK)

FIR
BGGL

Notam_id:
BGB0205/20

valid from:
2003221300

E) RWY 05/23 CLSD DUE TO BLASTING CLOSE TO AD SUNDAY MARCH 22 BTW 1300-1500. BLASTING WILL BE CANCELLED IN CASE OF SAR, MEDEVAC OR EMERGENCY

valid to:
2003221500




ICAO
BGGH (NUUK)

FIR
BGGL

Notam_id:
BGB0204/20

valid from:
2003081300

E) RWY 05/23 CLSD DUE TO BLASTING CLOSE TO AD SUNDAY MARCH 8TH BTW 1300-1500. BLASTING WILL BE CANCELLED IN CASE OF SAR, MEDEVAC OR EMERGENCY

valid to:
2003081500




ICAO
BGGH (NUUK)

FIR
BGGL

Notam_id:
BGB0084/20

valid from:
2001211253

E) LIGHTING ON RWY DESIGNATION SIGNS U/S.

valid to:
2002281500EST




ICAO
BGGH (NUUK)

FIR
BGGL

Notam_id:
BGB0819/19

valid from:
1912161442

E) BGGH AFIS FREQ 119.100 MHZ LIMITED RADIOCOVERAGE WITHIN TIZ TO THE NE, E, SE AND S.

valid to:
2003011200EST


Replacing:
BGB0814/19


Copyright Naviair   2003-2016